createdAt,value
2023-01-07T00:00:06.500Z,26.70
2023-01-07T00:02:34.170Z,26.30
2023-01-07T00:05:02.227Z,26.60
2023-01-07T00:07:30.301Z,25.53
2023-01-07T00:09:58.280Z,23.33
2023-01-07T00:12:25.881Z,21.27
2023-01-07T00:14:53.449Z,20.80
2023-01-07T00:17:21.543Z,19.60
2023-01-07T00:19:49.807Z,18.87
2023-01-07T00:22:17.897Z,19.40
2023-01-07T00:24:45.481Z,18.47
2023-01-07T00:27:13.413Z,18.57
2023-01-07T00:29:41.315Z,18.03
2023-01-07T00:32:09.262Z,18.27
2023-01-07T00:34:39.096Z,19.13
2023-01-07T00:37:25.043Z,17.93
2023-01-07T00:39:55.731Z,17.33
2023-01-07T00:42:41.696Z,20.37
2023-01-07T00:45:12.256Z,19.20
2023-01-07T00:47:39.787Z,19.43
2023-01-07T00:50:09.691Z,17.57
2023-01-07T00:52:37.565Z,18.30
2023-01-07T00:55:07.218Z,17.97
2023-01-07T00:57:35.148Z,17.90
2023-01-07T01:00:02.581Z,19.37
2023-01-07T01:02:30.540Z,18.67
2023-01-07T01:04:58.550Z,19.80
2023-01-07T01:07:26.504Z,19.53
2023-01-07T01:09:54.855Z,19.30
2023-01-07T01:12:22.685Z,19.33
2023-01-07T01:14:50.648Z,19.40
2023-01-07T01:17:18.288Z,18.60
2023-01-07T01:19:46.200Z,19.53
2023-01-07T01:22:13.854Z,18.87
2023-01-07T01:24:41.829Z,18.07
2023-01-07T01:27:10.137Z,20.33
2023-01-07T01:29:38.049Z,18.57
2023-01-07T01:32:06.157Z,18.13
2023-01-07T01:34:33.758Z,18.47
2023-01-07T01:37:01.263Z,18.53
2023-01-07T01:39:29.150Z,18.60
2023-01-07T01:41:56.706Z,19.50
2023-01-07T01:44:34.734Z,19.00
2023-01-07T01:47:02.667Z,18.37
2023-01-07T01:49:37.160Z,19.27
2023-01-07T01:52:12.857Z,19.57
2023-01-07T01:54:41.040Z,19.80
2023-01-07T01:57:08.621Z,20.23
2023-01-07T01:59:38.719Z,20.97
2023-01-07T02:02:06.590Z,19.70
2023-01-07T02:04:34.005Z,20.17
2023-01-07T02:07:04.779Z,19.83
2023-01-07T02:09:32.377Z,19.57
2023-01-07T02:12:17.409Z,20.23
2023-01-07T02:15:06.314Z,19.93
2023-01-07T02:17:48.511Z,19.53
2023-01-07T02:20:44.095Z,18.97
2023-01-07T02:23:40.510Z,20.57
2023-01-07T02:26:07.038Z,20.33
2023-01-07T02:31:41.314Z,19.50
2023-01-07T02:34:12.657Z,20.50
2023-01-07T02:36:47.635Z,19.43
2023-01-07T02:39:20.782Z,20.33
2023-01-07T02:41:57.874Z,20.80
2023-01-07T02:44:43.924Z,19.50
2023-01-07T02:47:23.140Z,19.97
2023-01-07T02:49:55.442Z,19.87
2023-01-07T02:52:24.724Z,21.57
2023-01-07T02:55:38.013Z,22.07
2023-01-07T02:58:14.389Z,20.20
2023-01-07T03:00:53.556Z,19.52
2023-01-07T03:03:22.014Z,18.93
2023-01-07T03:05:55.293Z,19.50
2023-01-07T03:08:48.120Z,20.13
2023-01-07T03:11:15.140Z,20.10
2023-01-07T03:13:48.783Z,20.80
2023-01-07T03:16:34.143Z,19.97
2023-01-07T03:19:06.086Z,19.50
2023-01-07T03:21:34.936Z,20.03
2023-01-07T03:24:02.415Z,20.63
2023-01-07T03:26:32.520Z,20.43
2023-01-07T03:29:00.620Z,19.67
2023-01-07T03:31:28.161Z,20.30
2023-01-07T03:34:01.151Z,19.47
2023-01-07T03:36:33.856Z,20.23
2023-01-07T03:39:00.925Z,20.23
2023-01-07T03:41:46.498Z,20.43
2023-01-07T03:44:13.949Z,19.10
2023-01-07T03:46:41.821Z,19.70
2023-01-07T03:49:09.463Z,21.67
2023-01-07T03:51:37.326Z,21.43
2023-01-07T03:54:05.185Z,21.07
2023-01-07T03:56:33.255Z,20.07
2023-01-07T03:59:01.148Z,21.03
2023-01-07T04:01:28.906Z,21.13
2023-01-07T04:03:57.019Z,20.40
2023-01-07T04:06:24.625Z,20.07
2023-01-07T04:08:52.696Z,22.50
2023-01-07T04:11:20.159Z,21.33
2023-01-07T04:13:48.109Z,20.47
2023-01-07T04:16:16.311Z,22.40
2023-01-07T04:18:43.743Z,20.17
2023-01-07T04:21:11.833Z,22.80
2023-01-07T04:23:39.739Z,23.80
2023-01-07T04:26:10.469Z,22.03
2023-01-07T04:28:38.453Z,21.53
2023-01-07T04:31:06.460Z,22.43
2023-01-07T04:33:34.208Z,21.90
2023-01-07T04:36:02.491Z,22.57
2023-01-07T04:38:30.076Z,22.50
2023-01-07T04:40:58.080Z,23.97
2023-01-07T04:43:26.075Z,22.40
2023-01-07T04:45:53.918Z,24.23
2023-01-07T04:48:21.350Z,22.20
2023-01-07T04:50:49.396Z,23.57
2023-01-07T04:53:17.909Z,23.37
2023-01-07T04:55:46.463Z,24.47
2023-01-07T04:58:14.577Z,22.30
2023-01-07T05:00:42.138Z,23.43
2023-01-07T05:03:10.732Z,25.80
2023-01-07T05:05:38.429Z,24.63
2023-01-07T05:08:07.266Z,26.77
2023-01-07T05:10:34.921Z,27.37
2023-01-07T05:13:06.801Z,26.67
2023-01-07T05:15:35.237Z,25.87
2023-01-07T05:18:03.360Z,27.00
2023-01-07T05:20:31.654Z,27.87
2023-01-07T05:22:59.305Z,28.23
2023-01-07T05:25:27.339Z,27.33
2023-01-07T05:27:55.215Z,27.37
2023-01-07T05:30:23.221Z,27.43
2023-01-07T05:32:51.555Z,27.77
2023-01-07T05:35:19.056Z,26.67
2023-01-07T05:37:47.134Z,26.63
2023-01-07T05:40:14.659Z,26.57
2023-01-07T05:42:42.212Z,27.53
2023-01-07T05:45:11.586Z,25.43
2023-01-07T05:47:39.129Z,26.67
2023-01-07T05:50:09.500Z,26.60
2023-01-07T05:52:37.534Z,28.80
2023-01-07T05:55:06.319Z,27.30
2023-01-07T05:57:37.010Z,28.03
2023-01-07T06:00:07.037Z,28.10
2023-01-07T06:02:34.976Z,29.17
2023-01-07T06:05:02.915Z,27.73
2023-01-07T06:07:30.495Z,27.87
2023-01-07T06:09:58.348Z,26.90
2023-01-07T06:12:26.080Z,26.80
2023-01-07T06:14:54.021Z,27.07
2023-01-07T06:17:21.969Z,25.87
2023-01-07T06:19:49.940Z,29.27
2023-01-07T06:22:17.795Z,36.60
2023-01-07T06:24:46.135Z,41.80
2023-01-07T06:27:14.122Z,37.83
2023-01-07T06:29:41.778Z,29.17
2023-01-07T06:32:09.594Z,28.50
2023-01-07T06:34:37.194Z,26.83
2023-01-07T06:37:05.472Z,27.37
2023-01-07T06:39:33.360Z,27.97
2023-01-07T06:42:00.942Z,26.27
2023-01-07T06:44:28.502Z,26.97
2023-01-07T06:46:56.333Z,27.10
2023-01-07T06:49:24.355Z,27.93
2023-01-07T06:51:52.438Z,27.37
2023-01-07T06:54:20.426Z,27.10
2023-01-07T06:56:48.423Z,26.43
2023-01-07T06:59:16.294Z,26.60
2023-01-07T07:02:03.937Z,27.13
2023-01-07T07:04:31.967Z,27.77
2023-01-07T07:06:59.826Z,28.10
2023-01-07T07:09:27.762Z,27.73
2023-01-07T07:11:55.633Z,27.27
2023-01-07T07:14:23.700Z,28.03
2023-01-07T07:16:51.478Z,26.33
2023-01-07T07:19:19.382Z,24.97
2023-01-07T07:21:47.772Z,24.53
2023-01-07T07:24:16.020Z,27.33
2023-01-07T07:26:44.093Z,25.50
2023-01-07T07:29:12.464Z,25.70
2023-01-07T07:31:40.146Z,25.33
2023-01-07T07:34:08.213Z,27.27
2023-01-07T07:36:36.119Z,26.23
2023-01-07T07:39:04.609Z,27.23
2023-01-07T07:41:32.483Z,25.53
2023-01-07T07:44:00.454Z,25.87
2023-01-07T07:46:28.127Z,24.63
2023-01-07T07:48:56.098Z,24.43
2023-01-07T07:51:23.565Z,25.00
2023-01-07T07:53:51.645Z,24.77
2023-01-07T07:56:19.030Z,25.03
2023-01-07T07:58:47.051Z,26.87
2023-01-07T08:01:15.126Z,25.63
2023-01-07T08:03:43.528Z,25.67
2023-01-07T08:06:11.855Z,25.17
2023-01-07T08:08:39.867Z,26.47
2023-01-07T08:11:07.896Z,25.73
2023-01-07T08:13:35.413Z,25.97
2023-01-07T08:16:03.401Z,25.50
2023-01-07T08:18:31.314Z,26.13
2023-01-07T08:20:58.705Z,25.97
2023-01-07T08:23:28.153Z,26.13
2023-01-07T08:25:59.217Z,25.47
2023-01-07T08:28:27.137Z,24.80
2023-01-07T08:30:55.334Z,26.97
2023-01-07T08:33:23.399Z,26.10
2023-01-07T08:35:51.399Z,26.87
2023-01-07T08:38:18.516Z,25.87
2023-01-07T08:40:46.525Z,26.40
2023-01-07T08:43:14.198Z,25.33
2023-01-07T08:45:42.190Z,25.73
2023-01-07T08:48:10.192Z,25.30
2023-01-07T08:50:38.251Z,25.13
2023-01-07T08:53:06.214Z,24.83
2023-01-07T08:55:33.552Z,25.97
2023-01-07T08:58:01.433Z,25.63
2023-01-07T09:00:29.091Z,24.40
2023-01-07T09:02:57.065Z,25.97
2023-01-07T09:05:24.968Z,25.07
2023-01-07T09:07:54.195Z,24.67
2023-01-07T09:10:22.051Z,24.57
2023-01-07T09:12:49.930Z,26.87
2023-01-07T09:15:17.480Z,26.60
2023-01-07T09:17:48.619Z,24.40
2023-01-07T09:20:16.616Z,24.43
2023-01-07T09:22:44.523Z,22.33
2023-01-07T09:25:12.502Z,25.00
2023-01-07T09:27:40.659Z,25.20
2023-01-07T09:30:10.941Z,26.53
2023-01-07T09:32:38.457Z,24.77
2023-01-07T09:35:08.471Z,24.20
2023-01-07T09:37:36.136Z,23.33
2023-01-07T09:40:05.647Z,25.23
2023-01-07T09:42:51.227Z,24.07
2023-01-07T09:45:17.761Z,22.97
2023-01-07T09:47:47.622Z,20.83
2023-01-07T09:50:17.581Z,20.97
2023-01-07T09:52:46.028Z,20.33
2023-01-07T09:55:23.109Z,19.10
2023-01-07T09:57:51.069Z,19.10
2023-01-07T10:00:20.322Z,18.30
2023-01-07T10:03:21.042Z,18.20
2023-01-07T10:05:57.211Z,17.53
2023-01-07T10:08:34.175Z,17.73
2023-01-07T10:13:50.796Z,18.07
2023-01-07T10:16:32.755Z,12.93
2023-01-07T10:19:06.091Z,19.00
2023-01-07T10:21:45.418Z,18.13
2023-01-07T10:24:40.906Z,19.10
2023-01-07T10:27:11.440Z,16.73
2023-01-07T10:29:43.195Z,16.90
2023-01-07T10:32:21.308Z,15.93
2023-01-07T10:34:50.286Z,16.97
2023-01-07T10:37:33.395Z,16.53
2023-01-07T10:40:38.009Z,14.97
2023-01-07T10:43:16.120Z,14.67
2023-01-07T10:45:50.005Z,14.53
2023-01-07T10:48:33.572Z,14.67
2023-01-07T10:51:02.144Z,15.27
2023-01-07T10:53:41.010Z,13.63
2023-01-07T10:56:26.804Z,13.93
2023-01-07T10:58:54.730Z,14.27
2023-01-07T11:01:36.594Z,14.20
2023-01-07T11:04:04.230Z,19.67
2023-01-07T11:06:40.312Z,36.33
2023-01-07T11:09:14.328Z,387.03
2023-01-07T11:11:42.100Z,302.60
2023-01-07T11:14:36.307Z,220.87
2023-01-07T11:17:30.237Z,35.50
2023-01-07T11:19:57.753Z,14.10
2023-01-07T11:22:27.360Z,30.03
2023-01-07T11:24:58.080Z,21.77
2023-01-07T11:27:27.589Z,105.67
2023-01-07T11:30:03.961Z,93.90
2023-01-07T11:32:38.570Z,36.35
2023-01-07T11:35:06.566Z,17.87
2023-01-07T11:37:44.484Z,14.57
2023-01-07T11:40:14.193Z,13.87
2023-01-07T11:43:22.303Z,13.10
2023-01-07T11:46:20.054Z,13.65
2023-01-07T11:48:57.756Z,13.60
2023-01-07T11:51:24.838Z,13.83
2023-01-07T11:53:57.992Z,14.07
2023-01-07T11:56:33.678Z,13.57
2023-01-07T11:59:15.300Z,13.57
2023-01-07T12:01:43.435Z,16.47
2023-01-07T12:04:27.943Z,14.13
2023-01-07T12:06:57.580Z,14.27
2023-01-07T12:09:36.262Z,14.10
2023-01-07T12:12:34.175Z,16.87
2023-01-07T12:15:04.906Z,15.10
2023-01-07T12:17:33.014Z,13.97
2023-01-07T12:20:21.771Z,13.33
2023-01-07T12:23:20.356Z,13.83
2023-01-07T12:26:11.957Z,12.73
2023-01-07T12:29:00.760Z,13.00
2023-01-07T12:31:43.929Z,16.47
2023-01-07T12:34:22.041Z,16.53
2023-01-07T12:36:53.303Z,18.03
2023-01-07T12:39:36.690Z,16.77
2023-01-07T12:42:13.654Z,14.60
2023-01-07T12:47:30.562Z,14.70
2023-01-07T12:50:08.939Z,13.87
2023-01-07T12:52:44.425Z,14.23
2023-01-07T12:55:21.465Z,14.20
2023-01-07T12:58:15.647Z,14.43
2023-01-07T13:00:47.523Z,13.43
2023-01-07T13:03:37.998Z,14.67
2023-01-07T13:06:34.195Z,16.17
2023-01-07T13:09:07.800Z,15.70
2023-01-07T13:12:01.111Z,14.63
2023-01-07T13:14:32.088Z,16.03
2023-01-07T13:17:20.765Z,15.57
2023-01-07T13:19:48.498Z,16.33
2023-01-07T13:22:24.480Z,14.93
2023-01-07T13:25:25.785Z,14.47
2023-01-07T13:28:16.666Z,14.93
2023-01-07T13:31:21.396Z,14.97
2023-01-07T13:34:25.825Z,14.93
2023-01-07T13:37:03.922Z,14.00
2023-01-07T13:39:52.825Z,14.83
2023-01-07T13:42:22.707Z,14.70
2023-01-07T13:44:49.243Z,16.73
2023-01-07T13:47:18.351Z,14.80
2023-01-07T13:49:56.809Z,15.87
2023-01-07T13:52:30.786Z,20.50
2023-01-07T13:54:59.864Z,19.17
2023-01-07T13:57:26.891Z,19.30
2023-01-07T13:59:54.823Z,30.80
2023-01-07T14:02:28.340Z,20.73
2023-01-07T14:05:21.410Z,19.13
2023-01-07T14:07:51.447Z,18.07
2023-01-07T14:10:26.254Z,18.40
2023-01-07T14:13:15.404Z,19.83
2023-01-07T14:16:09.130Z,21.03
2023-01-07T14:18:53.100Z,20.43
2023-01-07T14:21:35.618Z,22.47
2023-01-07T14:24:20.734Z,22.53
2023-01-07T14:27:14.895Z,21.60
2023-01-07T14:29:48.324Z,20.27
2023-01-07T14:32:34.790Z,21.03
2023-01-07T14:35:10.381Z,22.20
2023-01-07T14:37:42.316Z,20.63
2023-01-07T14:40:27.704Z,19.77
2023-01-07T14:42:55.133Z,20.37
2023-01-07T14:45:37.441Z,21.20
2023-01-07T14:48:12.660Z,21.43
2023-01-07T14:51:11.182Z,20.77
2023-01-07T14:54:07.166Z,21.50
2023-01-07T14:56:49.881Z,21.33
2023-01-07T14:59:28.760Z,22.03
2023-01-07T15:02:19.802Z,22.13
2023-01-07T15:05:06.563Z,22.13
2023-01-07T15:07:36.644Z,20.73
2023-01-07T15:10:22.671Z,20.70
2023-01-07T15:13:29.548Z,21.50
2023-01-07T15:16:03.705Z,20.00
2023-01-07T15:18:32.563Z,20.60
2023-01-07T15:21:19.098Z,20.97
2023-01-07T15:24:15.891Z,21.97
2023-01-07T15:26:53.797Z,20.87
2023-01-07T15:29:54.416Z,22.17
2023-01-07T15:32:53.114Z,22.33
2023-01-07T15:35:23.808Z,21.30
2023-01-07T15:37:51.108Z,21.20
2023-01-07T15:40:23.709Z,22.23
2023-01-07T15:42:52.538Z,21.57
2023-01-07T15:45:23.109Z,20.10
2023-01-07T15:47:50.930Z,20.23
2023-01-07T15:50:26.253Z,20.30
2023-01-07T15:53:06.946Z,20.43
2023-01-07T15:55:52.084Z,20.20
2023-01-07T15:58:44.959Z,19.77
2023-01-07T16:01:21.969Z,20.47
2023-01-07T16:03:50.689Z,18.63
2023-01-07T16:06:32.752Z,18.83
2023-01-07T16:09:00.409Z,22.60
2023-01-07T16:11:28.405Z,27.43
2023-01-07T16:14:00.542Z,28.73
2023-01-07T16:16:30.454Z,22.50
2023-01-07T16:18:58.738Z,21.67
2023-01-07T16:21:52.429Z,20.17
2023-01-07T16:24:20.652Z,19.87
2023-01-07T16:26:52.110Z,20.90
2023-01-07T16:29:21.378Z,19.63
2023-01-07T16:31:48.980Z,18.47
2023-01-07T16:34:25.054Z,20.30
2023-01-07T16:37:20.825Z,20.20
2023-01-07T16:39:48.512Z,19.63
2023-01-07T16:42:23.548Z,20.20
2023-01-07T16:44:56.605Z,19.03
2023-01-07T16:47:31.790Z,20.23
2023-01-07T16:50:20.007Z,19.10
2023-01-07T16:52:59.418Z,19.33
2023-01-07T16:55:44.873Z,19.87
2023-01-07T16:58:30.324Z,20.20
2023-01-07T17:00:58.669Z,20.20
2023-01-07T17:03:26.316Z,26.97
2023-01-07T17:06:06.785Z,20.90
2023-01-07T17:08:33.673Z,19.77
2023-01-07T17:11:08.025Z,19.73
2023-01-07T17:13:38.158Z,20.70
2023-01-07T17:16:25.615Z,20.67
2023-01-07T17:22:08.341Z,19.33
2023-01-07T17:24:35.564Z,18.93
2023-01-07T17:27:03.687Z,19.50
2023-01-07T17:29:35.050Z,20.93
2023-01-07T17:32:03.272Z,19.40
2023-01-07T17:34:31.158Z,20.53
2023-01-07T17:37:02.174Z,19.87
2023-01-07T17:39:29.755Z,20.20
2023-01-07T17:42:15.909Z,21.53
2023-01-07T17:44:43.542Z,25.07
2023-01-07T17:47:12.140Z,23.20
2023-01-07T17:49:40.078Z,22.37
2023-01-07T17:52:08.257Z,21.10
2023-01-07T17:54:36.030Z,21.03
2023-01-07T17:57:04.111Z,21.30
2023-01-07T17:59:31.694Z,21.53
2023-01-07T18:02:01.238Z,20.67
2023-01-07T18:04:30.447Z,23.47
2023-01-07T18:06:58.764Z,23.20
2023-01-07T18:09:26.623Z,21.23
2023-01-07T18:12:15.459Z,19.67
2023-01-07T18:14:43.347Z,20.50
2023-01-07T18:17:11.216Z,21.27
2023-01-07T18:19:39.923Z,21.13
2023-01-07T18:22:07.927Z,20.33
2023-01-07T18:24:35.422Z,20.70
2023-01-07T18:27:03.527Z,21.57
2023-01-07T18:29:31.376Z,22.73
2023-01-07T18:31:59.657Z,20.83
2023-01-07T18:34:26.824Z,21.50
2023-01-07T18:36:54.424Z,21.80
2023-01-07T18:39:21.880Z,22.40
2023-01-07T18:41:50.191Z,21.90
2023-01-07T18:44:19.150Z,20.00
2023-01-07T18:46:47.154Z,20.60
2023-01-07T18:49:15.167Z,23.10
2023-01-07T18:51:43.493Z,22.70
2023-01-07T18:54:11.648Z,20.47
2023-01-07T18:56:39.295Z,22.27
2023-01-07T18:59:06.813Z,22.40
2023-01-07T19:01:34.894Z,23.47
2023-01-07T19:04:05.287Z,20.57
2023-01-07T19:06:33.051Z,20.77
2023-01-07T19:09:00.787Z,21.90
2023-01-07T19:11:28.694Z,22.90
2023-01-07T19:13:56.265Z,21.77
2023-01-07T19:16:23.914Z,21.63
2023-01-07T19:18:53.257Z,23.60
2023-01-07T19:21:21.587Z,23.00
2023-01-07T19:23:49.448Z,22.33
2023-01-07T19:26:17.173Z,22.13
2023-01-07T19:28:45.334Z,21.37
2023-01-07T19:31:12.546Z,22.23
2023-01-07T19:33:40.346Z,22.63
2023-01-07T19:36:09.441Z,22.97
2023-01-07T19:38:45.274Z,21.63
2023-01-07T19:41:17.173Z,21.83
2023-01-07T19:43:45.827Z,22.27
2023-01-07T19:46:14.598Z,20.67
2023-01-07T19:48:43.538Z,22.03
2023-01-07T19:51:10.704Z,21.90
2023-01-07T19:53:38.740Z,22.50
2023-01-07T19:56:09.805Z,21.90
2023-01-07T19:58:42.710Z,21.17
2023-01-07T20:01:32.826Z,19.60
2023-01-07T20:04:00.656Z,21.57
2023-01-07T20:06:29.180Z,20.27
2023-01-07T20:08:57.815Z,21.37
2023-01-07T20:11:25.566Z,22.67
2023-01-07T20:13:53.150Z,21.80
2023-01-07T20:16:24.553Z,20.40
2023-01-07T20:18:53.853Z,23.00
2023-01-07T20:21:22.991Z,22.80
2023-01-07T20:23:50.976Z,21.67
2023-01-07T20:26:20.591Z,22.27
2023-01-07T20:28:48.715Z,20.97
2023-01-07T20:31:16.499Z,22.10
2023-01-07T20:33:45.107Z,22.53
2023-01-07T20:36:18.014Z,23.57
2023-01-07T20:38:46.278Z,22.37
2023-01-07T20:41:18.394Z,23.03
2023-01-07T20:43:50.200Z,22.67
2023-01-07T20:46:18.754Z,23.57
2023-01-07T20:48:46.944Z,21.97
2023-01-07T20:51:14.630Z,23.17
2023-01-07T20:53:42.861Z,23.60
2023-01-07T20:56:10.939Z,25.87
2023-01-07T20:58:39.586Z,25.23
2023-01-07T21:01:10.310Z,23.27
2023-01-07T21:03:38.809Z,24.70
2023-01-07T21:06:09.705Z,24.80
2023-01-07T21:08:37.588Z,25.27
2023-01-07T21:11:09.619Z,22.87
2023-01-07T21:13:37.480Z,23.57
2023-01-07T21:16:04.470Z,22.07
2023-01-07T21:18:32.283Z,24.50
2023-01-07T21:21:00.453Z,23.90
2023-01-07T21:23:28.440Z,25.17
2023-01-07T21:25:56.373Z,26.17
2023-01-07T21:28:23.830Z,25.63
2023-01-07T21:30:51.352Z,25.90
2023-01-07T21:33:19.555Z,23.20
2023-01-07T21:35:47.403Z,25.50
2023-01-07T21:38:16.303Z,23.60
2023-01-07T21:40:44.049Z,23.10
2023-01-07T21:43:12.796Z,24.10
2023-01-07T21:45:41.877Z,24.70
2023-01-07T21:48:10.787Z,22.70
2023-01-07T21:50:39.421Z,24.97
2023-01-07T21:53:07.359Z,24.23
2023-01-07T21:55:39.380Z,22.30
2023-01-07T21:58:07.582Z,23.93
2023-01-07T22:00:35.518Z,23.77
2023-01-07T22:03:03.446Z,24.10
2023-01-07T22:05:31.715Z,27.10
2023-01-07T22:07:59.693Z,30.30
2023-01-07T22:10:27.548Z,32.87
2023-01-07T22:12:58.326Z,30.83
2023-01-07T22:15:25.900Z,28.07
2023-01-07T22:17:54.076Z,26.40
2023-01-07T22:20:21.716Z,25.43
2023-01-07T22:22:49.283Z,23.63
2023-01-07T22:25:17.681Z,23.67
2023-01-07T22:27:45.223Z,24.80
2023-01-07T22:30:13.284Z,22.30
2023-01-07T22:32:41.419Z,21.90
2023-01-07T22:35:16.298Z,21.43
2023-01-07T22:37:44.659Z,23.27
2023-01-07T22:40:19.077Z,23.37
2023-01-07T22:42:54.812Z,22.40
2023-01-07T22:45:39.696Z,21.70
2023-01-07T22:48:09.747Z,22.30
2023-01-07T22:50:38.892Z,22.13
2023-01-07T22:53:08.368Z,22.03
2023-01-07T22:55:36.471Z,24.03
2023-01-07T22:58:05.255Z,21.83
2023-01-07T23:00:52.089Z,23.27
2023-01-07T23:03:20.719Z,17.50
2023-01-07T23:05:50.166Z,21.23
2023-01-07T23:08:18.415Z,24.90
2023-01-07T23:10:46.558Z,30.87
2023-01-07T23:13:15.361Z,27.83
2023-01-07T23:15:44.168Z,26.93
2023-01-07T23:18:12.418Z,26.90
2023-01-07T23:20:40.179Z,26.23
2023-01-07T23:23:09.126Z,25.20
2023-01-07T23:25:37.949Z,26.43
2023-01-07T23:28:06.827Z,24.33
2023-01-07T23:30:35.547Z,25.07
2023-01-07T23:33:04.700Z,24.43
2023-01-07T23:35:32.626Z,25.67
2023-01-07T23:38:01.282Z,24.30
2023-01-07T23:40:28.998Z,25.00
2023-01-07T23:42:57.829Z,25.20
2023-01-07T23:45:29.248Z,22.80
2023-01-07T23:47:58.203Z,23.57
2023-01-07T23:50:26.781Z,23.23
2023-01-07T23:52:55.502Z,24.10
2023-01-07T23:55:24.084Z,23.10
2023-01-07T23:57:53.055Z,22.63
